Time;durP1;ratioP1;P1;durP2;ratioP2;P2;SDS_P1;SDS_P2;PMS_P1;PMS_P2;Temp;Humidity;BMP_temperature;BMP_pressure;BME280_temperature;BME280_humidity;BME280_pressure;Samples;Min_cycle;Max_cycle;Signal;HPM_P1;HPM_P2
2020/12/23 00:00:00;;;;;;;4.67;4.27;;;5.50;99.90;;;;;;4967137;28;20435;-77
2020/12/23 00:02:26;;;;;;;4.87;4.13;;;5.40;99.90;;;;;;4973550;28;20439;-77
2020/12/23 00:04:52;;;;;;;5.47;3.50;;;5.40;99.90;;;;;;4972543;28;20439;-77
2020/12/23 00:07:18;;;;;;;3.77;3.43;;;5.40;99.90;;;;;;4966681;28;20184;-77
2020/12/23 00:09:45;;;;;;;6.30;4.13;;;5.30;99.90;;;;;;4966306;28;20188;-77
2020/12/23 00:12:11;;;;;;;6.93;4.03;;;5.30;99.90;;;;;;4967377;28;20455;-77
2020/12/23 00:14:38;;;;;;;6.73;4.10;;;5.20;99.90;;;;;;4968487;28;20438;-77
2020/12/23 00:17:03;;;;;;;6.40;3.80;;;5.10;99.90;;;;;;4968601;28;20427;-77
2020/12/23 00:19:29;;;;;;;5.73;3.80;;;5.10;99.90;;;;;;4967364;28;20526;-77
2020/12/23 00:21:55;;;;;;;5.60;3.97;;;5.10;99.90;;;;;;4982882;28;20435;-77
2020/12/23 00:24:21;;;;;;;6.30;3.40;;;5.00;99.90;;;;;;4968019;28;20243;-77
2020/12/23 00:26:47;;;;;;;3.43;3.20;;;4.90;99.90;;;;;;4967863;28;20211;-77
2020/12/23 00:29:13;;;;;;;4.00;2.77;;;4.90;99.90;;;;;;4967461;28;20188;-77
2020/12/23 00:31:40;;;;;;;3.73;2.93;;;4.80;99.90;;;;;;4969309;28;20470;-78
2020/12/23 00:34:06;;;;;;;3.83;3.27;;;4.80;99.90;;;;;;4969915;28;20459;-77
2020/12/23 00:36:32;;;;;;;3.70;3.10;;;4.80;99.90;;;;;;4999942;28;20447;-77
2020/12/23 00:38:58;;;;;;;5.80;4.13;;;4.70;99.90;;;;;;4968070;28;20432;-77
2020/12/23 00:41:24;;;;;;;4.60;3.50;;;4.60;99.90;;;;;;4968374;28;20447;-78
2020/12/23 00:43:50;;;;;;;5.20;3.63;;;4.50;99.90;;;;;;4969183;28;20907;-78
2020/12/23 00:46:15;;;;;;;5.33;3.53;;;4.50;99.90;;;;;;4968005;28;20245;-77
2020/12/23 00:48:42;;;;;;;7.47;3.10;;;4.50;99.90;;;;;;4968045;28;20214;-78
2020/12/23 00:51:13;;;;;;;4.00;3.70;;;4.40;99.90;;;;;;4969269;28;20205;-77
2020/12/23 00:53:39;;;;;;;5.63;3.37;;;4.40;99.90;;;;;;4984744;28;20442;-78
2020/12/23 00:56:05;;;;;;;4.00;3.60;;;4.40;99.90;;;;;;4969223;28;20454;-77
2020/12/23 00:58:31;;;;;;;3.23;2.80;;;4.40;99.90;;;;;;4968357;28;20459;-77
2020/12/23 01:00:58;;;;;;;3.50;3.20;;;4.30;99.90;;;;;;4970084;28;20475;-77
2020/12/23 01:03:24;;;;;;;5.10;3.80;;;4.30;99.90;;;;;;4970645;28;20697;-78
2020/12/23 01:05:50;;;;;;;9.33;3.00;;;4.30;99.90;;;;;;4971315;28;20474;-78
2020/12/23 01:08:16;;;;;;;3.03;2.33;;;4.20;99.90;;;;;;4968463;28;20476;-77
2020/12/23 01:10:47;;;;;;;3.70;3.33;;;4.20;99.90;;;;;;4968932;28;20462;-78
2020/12/23 01:13:16;;;;;;;3.30;3.10;;;4.10;99.90;;;;;;4969432;28;20196;-78
2020/12/23 01:15:43;;;;;;;5.53;3.83;;;4.10;99.90;;;;;;4969414;28;20481;-78
2020/12/23 01:18:09;;;;;;;7.90;3.10;;;4.10;99.90;;;;;;4968860;28;20437;-78
2020/12/23 01:20:34;;;;;;;3.57;3.03;;;4.00;99.90;;;;;;4969349;28;20447;-78
2020/12/23 01:23:00;;;;;;;6.83;4.10;;;3.80;99.90;;;;;;4985328;28;20243;-78
2020/12/23 01:25:26;;;;;;;4.60;4.20;;;3.70;99.90;;;;;;4969499;28;20185;-78
2020/12/23 01:27:51;;;;;;;6.13;4.10;;;3.50;99.90;;;;;;4968176;28;20654;-78
2020/12/23 01:30:17;;;;;;;5.77;3.53;;;3.40;99.90;;;;;;4970008;28;20633;-78
2020/12/23 01:32:43;;;;;;;4.83;3.73;;;3.40;99.90;;;;;;4967545;28;20659;-78
2020/12/23 01:35:10;;;;;;;8.33;3.40;;;3.40;99.90;;;;;;4970539;28;20240;-78
2020/12/23 01:37:36;;;;;;;5.20;3.30;;;3.50;99.90;;;;;;4968201;28;20480;-77
2020/12/23 01:40:03;;;;;;;3.60;3.30;;;3.70;99.90;;;;;;4971288;28;20482;-78
2020/12/23 01:42:32;;;;;;;4.70;3.40;;;3.70;99.90;;;;;;4984508;28;20450;-78
2020/12/23 01:44:59;;;;;;;12.73;3.77;;;3.60;99.90;;;;;;4968342;28;20445;-78
2020/12/23 01:47:25;;;;;;;5.80;4.10;;;3.60;99.90;;;;;;4975833;28;20448;-77
2020/12/23 01:49:51;;;;;;;5.33;4.00;;;3.50;99.90;;;;;;4969621;28;20525;-78
2020/12/23 01:52:18;;;;;;;9.40;4.03;;;3.50;99.90;;;;;;4974257;28;20475;-78
2020/12/23 01:54:44;;;;;;;9.07;4.70;;;3.50;99.90;;;;;;4969216;28;20584;-78
2020/12/23 01:57:11;;;;;;;5.87;4.50;;;3.60;99.90;;;;;;4969064;28;20528;-77
2020/12/23 01:59:49;;;;;;;9.90;4.03;;;3.50;99.90;;;;;;4968452;28;20530;-78
2020/12/23 02:02:31;;;;;;;7.30;4.23;;;3.50;99.90;;;;;;4968739;28;20455;-78
2020/12/23 02:04:58;;;;;;;8.27;3.70;;;3.50;99.90;;;;;;4968762;28;20433;-78
2020/12/23 02:07:25;;;;;;;6.43;4.80;;;3.40;99.90;;;;;;4970085;28;20526;-78
2020/12/23 02:09:53;;;;;;;4.87;4.03;;;3.30;99.90;;;;;;4973025;28;20445;-78
2020/12/23 02:12:19;;;;;;;7.40;4.50;;;3.30;99.90;;;;;;4973046;28;20468;-78
2020/12/23 02:14:45;;;;;;;6.80;4.40;;;3.10;99.90;;;;;;4972623;28;20912;-78
2020/12/23 02:17:11;;;;;;;4.87;4.10;;;3.20;99.90;;;;;;4979010;28;20580;-78
2020/12/23 02:19:49;;;;;;;4.13;3.83;;;3.20;99.90;;;;;;4973197;28;20489;-78
2020/12/23 02:22:21;;;;;;;13.10;4.20;;;3.30;99.90;;;;;;4973157;28;20595;-78
2020/12/23 02:24:51;;;;;;;5.60;4.03;;;3.40;99.90;;;;;;4971964;28;20534;-77
2020/12/23 02:27:19;;;;;;;8.33;4.40;;;3.60;99.90;;;;;;4970995;28;20921;-78
2020/12/23 02:29:47;;;;;;;14.80;4.30;;;3.80;99.90;;;;;;4971603;28;20446;-78
2020/12/23 02:32:14;;;;;;;7.53;3.90;;;3.80;99.90;;;;;;4971352;28;20470;-78
2020/12/23 02:34:40;;;;;;;5.70;4.63;;;3.80;99.90;;;;;;4971307;28;20512;-78
2020/12/23 02:37:08;;;;;;;8.50;4.27;;;3.70;99.90;;;;;;4970908;28;20437;-78
2020/12/23 02:39:35;;;;;;;6.50;3.70;;;3.70;99.90;;;;;;4973857;28;20448;-78
2020/12/23 02:42:02;;;;;;;4.77;3.83;;;3.70;99.90;;;;;;4970787;28;20494;-78
2020/12/23 02:44:28;;;;;;;6.00;4.50;;;3.70;99.90;;;;;;4972267;28;20855;-78
2020/12/23 02:47:00;;;;;;;5.40;4.40;;;3.70;99.90;;;;;;4971912;28;20446;-78
2020/12/23 02:49:27;;;;;;;5.17;4.07;;;3.70;99.90;;;;;;4971128;28;20432;-78
2020/12/23 02:51:53;;;;;;;5.90;4.10;;;3.80;99.90;;;;;;4971331;28;20474;-78
2020/12/23 02:54:20;;;;;;;5.63;4.60;;;3.80;99.90;;;;;;4969861;28;20429;-78
2020/12/23 02:56:46;;;;;;;6.67;3.87;;;3.70;99.90;;;;;;4968865;28;20433;-78
2020/12/23 02:59:12;;;;;;;6.47;3.93;;;3.70;99.90;;;;;;4969087;28;20500;-78
2020/12/23 03:01:38;;;;;;;6.90;4.40;;;3.90;99.90;;;;;;4969649;28;20530;-78
2020/12/23 03:04:05;;;;;;;9.00;3.63;;;4.00;99.90;;;;;;4969361;28;20453;-78
2020/12/23 03:06:31;;;;;;;10.77;4.40;;;4.00;99.90;;;;;;4968077;28;20522;-78
2020/12/23 03:08:57;;;;;;;13.87;5.43;;;4.00;99.90;;;;;;4968438;28;20449;-78
2020/12/23 03:11:23;;;;;;;10.17;4.20;;;4.10;99.90;;;;;;4968839;28;20454;-78
2020/12/23 03:13:49;;;;;;;6.40;4.63;;;4.10;99.90;;;;;;4968892;28;21109;-78
2020/12/23 03:16:15;;;;;;;7.97;4.80;;;4.20;99.90;;;;;;4985073;28;20708;-78
2020/12/23 03:18:41;;;;;;;6.30;5.27;;;4.20;99.90;;;;;;4967713;28;20437;-78
2020/12/23 03:21:07;;;;;;;6.20;4.67;;;4.20;99.90;;;;;;4967317;28;20226;-78
2020/12/23 03:23:33;;;;;;;9.07;4.07;;;4.20;99.90;;;;;;4968249;28;20436;-78
2020/12/23 03:25:59;;;;;;;6.67;4.40;;;4.30;99.90;;;;;;4967284;28;20438;-78
2020/12/23 03:28:25;;;;;;;6.93;4.63;;;4.30;99.90;;;;;;4973658;28;20463;-78
2020/12/23 03:30:51;;;;;;;7.00;5.00;;;4.30;99.90;;;;;;4969545;28;20641;-78
2020/12/23 03:33:16;;;;;;;7.53;4.67;;;4.30;99.90;;;;;;4968602;28;20246;-78
2020/12/23 03:35:42;;;;;;;8.33;5.20;;;4.20;99.90;;;;;;4968382;28;20179;-78
2020/12/23 03:38:08;;;;;;;9.00;4.33;;;4.20;99.90;;;;;;4965558;28;20493;-78
2020/12/23 03:40:34;;;;;;;9.93;4.60;;;4.20;99.90;;;;;;4967830;28;20177;-78
2020/12/23 03:42:59;;;;;;;7.10;4.83;;;4.20;99.90;;;;;;4984541;28;20222;-78
2020/12/23 03:45:26;;;;;;;6.97;4.17;;;4.20;99.90;;;;;;4968164;28;21012;-78
2020/12/23 03:47:52;;;;;;;9.37;6.00;;;4.10;99.90;;;;;;4969567;28;20227;-78
2020/12/23 03:50:18;;;;;;;5.80;3.90;;;4.10;99.90;;;;;;4968711;28;20445;-78
2020/12/23 03:52:43;;;;;;;9.87;5.77;;;4.10;99.90;;;;;;4967388;28;20951;-78
2020/12/23 03:55:09;;;;;;;10.70;4.93;;;4.10;99.90;;;;;;4970817;28;20235;-78
2020/12/23 03:57:35;;;;;;;4.70;4.27;;;4.10;99.90;;;;;;4970678;28;20237;-78
2020/12/23 04:00:05;;;;;;;3.93;3.53;;;4.20;99.90;;;;;;4970023;28;20520;-78
2020/12/23 04:02:30;;;;;;;10.90;5.60;;;4.30;99.90;;;;;;4983658;28;20175;-78
2020/12/23 04:04:56;;;;;;;5.93;4.60;;;4.30;99.90;;;;;;4969841;28;20929;-78
2020/12/23 04:07:22;;;;;;;8.27;4.80;;;4.40;99.90;;;;;;4975631;28;20196;-79
2020/12/23 04:09:47;;;;;;;6.97;4.17;;;4.40;99.90;;;;;;4968274;28;20214;-78
2020/12/23 04:12:13;;;;;;;9.03;4.97;;;4.50;99.90;;;;;;4965804;28;20653;-78
2020/12/23 04:14:39;;;;;;;8.63;4.93;;;4.60;99.90;;;;;;4967578;28;20236;-78
2020/12/23 04:17:05;;;;;;;5.57;4.13;;;4.60;99.90;;;;;;4972360;28;20691;-78
2020/12/23 04:19:30;;;;;;;8.80;4.90;;;4.60;99.90;;;;;;4967962;28;20203;-78
2020/12/23 04:21:56;;;;;;;5.83;3.80;;;4.60;99.90;;;;;;4982753;28;20191;-78
2020/12/23 04:24:22;;;;;;;6.47;4.20;;;4.60;99.90;;;;;;4968867;28;20187;-78
2020/12/23 04:26:48;;;;;;;7.80;4.00;;;4.60;99.90;;;;;;4972900;28;20187;-78
2020/12/23 04:29:13;;;;;;;7.43;4.20;;;4.60;99.90;;;;;;4967623;28;20485;-78
2020/12/23 04:31:39;;;;;;;7.50;4.90;;;4.60;99.90;;;;;;4968822;28;20660;-78
2020/12/23 04:34:05;;;;;;;7.67;4.30;;;4.70;99.90;;;;;;4969339;28;20214;-78
2020/12/23 04:36:30;;;;;;;6.47;4.23;;;4.80;99.90;;;;;;4968555;28;20176;-78
2020/12/23 04:38:56;;;;;;;5.73;3.50;;;4.80;99.90;;;;;;4967215;28;20184;-78
2020/12/23 04:41:22;;;;;;;8.47;3.87;;;4.80;99.90;;;;;;4968517;28;20625;-78
2020/12/23 04:43:48;;;;;;;9.30;4.47;;;4.80;99.90;;;;;;4969191;28;20192;-78
2020/12/23 04:46:22;;;;;;;5.90;3.77;;;4.80;99.90;;;;;;4969458;28;20190;-78
2020/12/23 04:48:58;;;;;;;11.50;4.80;;;4.90;99.90;;;;;;4968283;28;20469;-78
2020/12/23 04:51:32;;;;;;;5.40;3.67;;;5.00;99.90;;;;;;4969142;28;20462;-78
2020/12/23 04:53:59;;;;;;;5.30;3.80;;;5.00;99.90;;;;;;4968296;28;20508;-78
2020/12/23 04:56:30;;;;;;;5.90;3.50;;;4.90;99.90;;;;;;4965343;28;20435;-78
2020/12/23 04:58:57;;;;;;;7.30;4.40;;;4.80;99.90;;;;;;4968592;28;20466;-78
2020/12/23 05:01:24;;;;;;;8.23;4.10;;;4.80;99.90;;;;;;4969788;28;20495;-78
2020/12/23 05:03:52;;;;;;;4.40;4.00;;;4.80;99.90;;;;;;4969573;28;20451;-78
2020/12/23 05:06:18;;;;;;;5.23;4.00;;;4.80;99.90;;;;;;4968834;28;20443;-78
2020/12/23 05:08:44;;;;;;;7.07;4.97;;;4.80;99.90;;;;;;4966664;28;20454;-78
2020/12/23 05:11:11;;;;;;;6.47;3.70;;;4.80;99.90;;;;;;4967606;28;20566;-78
2020/12/23 05:13:38;;;;;;;5.63;4.03;;;4.90;99.90;;;;;;4966404;28;20181;-78
2020/12/23 05:16:09;;;;;;;5.33;3.97;;;4.90;99.90;;;;;;4968565;28;20885;-78
2020/12/23 05:18:41;;;;;;;6.17;3.90;;;4.90;99.90;;;;;;4969850;28;20948;-78
2020/12/23 05:21:14;;;;;;;4.30;3.73;;;4.90;99.90;;;;;;4966601;28;20800;-78
2020/12/23 05:23:44;;;;;;;5.80;4.30;;;4.90;99.90;;;;;;4967123;28;20481;-78
2020/12/23 05:26:11;;;;;;;5.03;4.33;;;4.90;99.90;;;;;;4965541;28;20427;-78
2020/12/23 05:28:38;;;;;;;4.33;3.90;;;4.90;99.90;;;;;;4966896;28;20439;-78
2020/12/23 05:31:07;;;;;;;7.80;4.43;;;4.90;99.90;;;;;;4965881;28;20759;-78
2020/12/23 05:33:34;;;;;;;7.10;4.40;;;4.90;99.90;;;;;;4966175;28;20514;-78
2020/12/23 05:36:04;;;;;;;5.50;4.50;;;4.90;99.90;;;;;;4967182;28;20446;-78
2020/12/23 05:38:32;;;;;;;7.40;4.90;;;5.00;99.90;;;;;;4964995;28;20420;-78
2020/12/23 05:41:05;;;;;;;7.03;4.30;;;5.00;99.90;;;;;;4971917;28;20531;-78
2020/12/23 05:43:32;;;;;;;5.50;4.67;;;5.00;99.90;;;;;;4965990;28;20431;-78
2020/12/23 05:46:03;;;;;;;6.50;3.10;;;5.00;99.90;;;;;;4968529;28;20498;-78
2020/12/23 05:48:31;;;;;;;5.23;4.03;;;5.00;99.90;;;;;;4968186;28;20529;-78
2020/12/23 05:50:58;;;;;;;6.43;4.00;;;5.00;99.90;;;;;;4971568;28;20944;-78
2020/12/23 05:53:27;;;;;;;4.00;3.70;;;5.00;99.90;;;;;;4969341;28;20438;-78
2020/12/23 05:55:54;;;;;;;3.50;3.20;;;5.00;99.90;;;;;;4975690;28;20424;-78
2020/12/23 05:58:24;;;;;;;4.87;4.33;;;5.00;99.90;;;;;;4965891;28;20477;-78
2020/12/23 06:01:01;;;;;;;5.80;3.90;;;5.00;99.90;;;;;;4968001;28;20935;-78
2020/12/23 06:03:35;;;;;;;4.73;4.33;;;5.00;99.90;;;;;;4965897;28;20426;-78
2020/12/23 06:06:03;;;;;;;3.70;3.37;;;5.00;99.90;;;;;;4966661;28;20447;-78
2020/12/23 06:08:36;;;;;;;4.47;4.07;;;4.90;99.90;;;;;;4967015;28;20466;-78
2020/12/23 06:11:29;;;;;;;4.07;3.53;;;4.90;99.90;;;;;;4967574;28;20951;-78
2020/12/23 06:13:57;;;;;;;4.00;3.60;;;4.90;99.90;;;;;;4967151;28;20496;-78
2020/12/23 06:16:30;;;;;;;3.90;3.57;;;4.90;99.90;;;;;;4966255;28;20529;-78
2020/12/23 06:19:11;;;;;;;5.03;4.27;;;4.90;99.90;;;;;;4965158;28;20427;-78
2020/12/23 06:21:38;;;;;;;6.07;3.90;;;4.90;99.90;;;;;;4966973;28;20441;-78
2020/12/23 06:24:11;;;;;;;4.17;3.80;;;4.90;99.90;;;;;;4966273;28;20534;-78
2020/12/23 06:26:40;;;;;;;3.70;3.40;;;4.80;99.90;;;;;;4967270;28;20448;-78
2020/12/23 06:29:08;;;;;;;4.80;4.30;;;4.90;99.90;;;;;;4965800;28;20445;-78
2020/12/23 06:31:43;;;;;;;4.20;3.83;;;4.90;99.90;;;;;;4966599;28;20925;-78
2020/12/23 06:34:23;;;;;;;4.43;4.03;;;4.80;99.90;;;;;;4965848;28;20502;-78
2020/12/23 06:36:50;;;;;;;4.80;4.33;;;4.80;99.90;;;;;;4966262;28;20435;-78
2020/12/23 06:39:19;;;;;;;4.50;4.10;;;4.80;99.90;;;;;;4965246;28;20432;-78
2020/12/23 06:41:46;;;;;;;4.53;4.13;;;4.80;99.90;;;;;;4965833;28;20889;-78
2020/12/23 06:44:12;;;;;;;4.87;4.33;;;4.80;99.90;;;;;;4967079;28;20472;-78
2020/12/23 06:46:59;;;;;;;3.63;3.40;;;4.80;99.90;;;;;;4966002;28;20471;-78
2020/12/23 06:49:39;;;;;;;4.77;4.20;;;4.70;99.90;;;;;;4965437;28;20191;-78
2020/12/23 06:52:27;;;;;;;4.33;3.83;;;4.80;99.90;;;;;;4965539;28;20448;-78
2020/12/23 06:54:54;;;;;;;4.87;4.47;;;4.90;99.90;;;;;;4981638;28;20913;-78
2020/12/23 06:57:38;;;;;;;5.97;4.60;;;4.80;99.90;;;;;;4970291;28;20442;-79
2020/12/23 07:00:07;;;;;;;6.87;3.57;;;4.80;99.90;;;;;;4968714;28;20459;-77
2020/12/23 07:02:33;;;;;;;5.20;4.00;;;4.70;99.90;;;;;;4969713;28;20449;-77
2020/12/23 07:04:59;;;;;;;4.17;3.87;;;4.60;99.90;;;;;;4969908;28;20447;-79
2020/12/23 07:07:36;;;;;;;5.90;4.70;;;4.60;99.90;;;;;;4970380;28;20522;-77
2020/12/23 07:10:12;;;;;;;5.97;4.17;;;4.60;99.90;;;;;;4968787;28;20473;-77
2020/12/23 07:12:47;;;;;;;5.00;4.60;;;4.70;99.90;;;;;;4969803;28;20545;-77
2020/12/23 07:15:18;;;;;;;4.50;4.10;;;4.80;99.90;;;;;;4969053;28;20771;-77
2020/12/23 07:17:44;;;;;;;5.23;4.73;;;4.70;99.90;;;;;;4968661;28;20436;-77
2020/12/23 07:20:12;;;;;;;4.77;4.27;;;4.70;99.90;;;;;;4984475;28;20438;-79
2020/12/23 07:22:39;;;;;;;5.13;4.70;;;4.70;99.90;;;;;;4969509;28;20449;-77
2020/12/23 07:25:06;;;;;;;5.33;4.60;;;4.60;99.90;;;;;;4969712;28;20530;-78
2020/12/23 07:27:32;;;;;;;5.47;4.87;;;4.40;99.90;;;;;;4967044;28;20507;-78
2020/12/23 07:30:08;;;;;;;6.33;5.57;;;4.40;99.90;;;;;;4968624;28;20514;-78
2020/12/23 07:32:35;;;;;;;6.40;5.50;;;4.30;99.90;;;;;;4969005;28;20468;-78
2020/12/23 07:35:03;;;;;;;7.40;6.60;;;4.30;99.90;;;;;;4971303;28;20915;-79
2020/12/23 07:37:38;;;;;;;7.00;5.00;;;4.30;99.90;;;;;;4975400;28;20441;-79
2020/12/23 07:40:13;;;;;;;7.80;5.30;;;4.30;99.90;;;;;;4970474;28;20422;-78
2020/12/23 07:42:40;;;;;;;8.43;5.20;;;4.30;99.90;;;;;;4969157;28;20441;-78
2020/12/23 07:45:06;;;;;;;6.50;4.87;;;4.30;99.90;;;;;;4984062;28;20517;-79
2020/12/23 07:47:32;;;;;;;6.30;5.37;;;4.30;99.90;;;;;;4970127;28;20435;-78
2020/12/23 07:49:59;;;;;;;5.40;4.90;;;4.40;99.90;;;;;;4970671;28;20656;-79
2020/12/23 07:52:25;;;;;;;6.17;5.50;;;4.50;99.90;;;;;;4973040;28;20536;-79
2020/12/23 07:54:50;;;;;;;5.00;4.60;;;4.50;99.90;;;;;;4972201;28;20425;-78
2020/12/23 07:57:29;;;;;;;6.67;5.83;;;4.50;99.90;;;;;;4968114;28;20923;-78
2020/12/23 08:00:05;;;;;;;6.50;4.90;;;4.60;99.90;;;;;;4977506;28;20707;-80
2020/12/23 08:02:31;;;;;;;4.90;4.43;;;4.60;99.90;;;;;;4970673;28;20470;-79
2020/12/23 08:04:56;;;;;;;3.80;3.50;;;4.60;99.90;;;;;;4967470;28;21085;-82
2020/12/23 08:07:26;;;;;;;5.40;4.90;;;4.60;99.90;;;;;;4966630;28;20202;-80
2020/12/23 08:09:52;;;;;;;4.90;4.50;;;4.60;99.90;;;;;;4967441;28;20188;-81
2020/12/23 08:12:19;;;;;;;4.83;4.37;;;4.60;99.90;;;;;;4972691;28;20463;-79
2020/12/23 08:14:45;;;;;;;5.47;4.00;;;4.50;99.90;;;;;;4980786;28;20908;-79
2020/12/23 08:20:14;;;;;;;6.70;5.10;;;4.60;99.90;;;;;;5032153;28;20573;-81
2020/12/23 08:22:45;;;;;;;6.87;5.70;;;4.60;99.90;;;;;;5032207;28;20428;-81
2020/12/23 08:25:16;;;;;;;5.70;5.10;;;4.60;99.90;;;;;;5036432;28;20518;-84
2020/12/23 08:27:44;;;;;;;9.50;4.93;;;4.70;99.90;;;;;;5048888;28;20459;-84
2020/12/23 08:30:22;;;;;;;4.87;4.33;;;4.70;99.90;;;;;;5033402;28;20429;-84
2020/12/23 08:32:59;;;;;;;5.93;4.13;;;4.80;99.90;;;;;;5049257;28;20887;-84
2020/12/23 08:35:41;;;;;;;5.47;4.40;;;4.80;99.90;;;;;;5035039;28;20431;-84
2020/12/23 08:38:26;;;;;;;4.43;4.03;;;4.70;99.90;;;;;;5031479;28;20442;-83
2020/12/23 08:40:56;;;;;;;5.67;4.13;;;4.70;99.90;;;;;;5030698;28;20511;-82
2020/12/23 08:43:24;;;;;;;8.03;5.20;;;4.70;99.90;;;;;;5035361;28;20524;-84
2020/12/23 08:45:54;;;;;;;5.87;4.63;;;4.70;99.90;;;;;;5042813;28;20471;-84
2020/12/23 08:48:24;;;;;;;7.47;5.30;;;4.80;99.90;;;;;;5039631;28;20428;-81
2020/12/23 08:51:01;;;;;;;8.17;5.70;;;4.70;99.90;;;;;;5031803;28;20488;-81
2020/12/23 08:53:35;;;;;;;7.77;5.60;;;4.70;99.90;;;;;;5029814;28;20482;-83
2020/12/23 08:56:01;;;;;;;5.40;4.90;;;4.80;99.90;;;;;;5034582;28;20431;-83
2020/12/23 08:58:28;;;;;;;5.87;4.90;;;4.80;99.90;;;;;;5045179;28;20498;-83
2020/12/23 09:01:01;;;;;;;10.37;5.97;;;4.70;99.90;;;;;;5054852;28;20424;-82
2020/12/23 09:03:28;;;;;;;5.80;4.57;;;4.70;99.90;;;;;;5054584;28;20956;-82
2020/12/23 09:05:57;;;;;;;9.17;5.57;;;4.70;99.90;;;;;;5053849;28;20423;-81
2020/12/23 09:08:25;;;;;;;6.90;4.77;;;4.70;99.90;;;;;;5042019;28;20451;-82
2020/12/23 09:10:56;;;;;;;5.60;4.40;;;4.70;99.90;;;;;;5034675;28;20436;-82
2020/12/23 09:13:32;;;;;;;8.67;4.77;;;4.70;99.90;;;;;;5037754;28;20404;-83
2020/12/23 09:16:00;;;;;;;5.37;4.83;;;4.80;99.90;;;;;;5038691;28;20427;-83
2020/12/23 09:18:26;;;;;;;6.83;4.40;;;4.80;99.90;;;;;;5051889;23;20492;-76
2020/12/23 09:20:59;;;;;;;6.27;4.70;;;4.80;99.90;;;;;;5041519;28;20449;-76
2020/12/23 09:23:25;;;;;;;5.37;4.87;;;4.80;99.90;;;;;;5055016;28;20459;-77
2020/12/23 09:25:52;;;;;;;7.50;6.00;;;4.90;99.90;;;;;;5041953;28;20432;-76
2020/12/23 09:28:18;;;;;;;5.00;4.60;;;4.90;99.90;;;;;;5041572;28;20434;-76
2020/12/23 09:30:48;;;;;;;5.10;4.70;;;4.90;99.90;;;;;;5039170;28;20922;-77
2020/12/23 09:33:19;;;;;;;9.97;5.70;;;4.90;99.90;;;;;;5040693;28;20435;-76
2020/12/23 09:36:03;;;;;;;6.20;5.23;;;5.10;99.90;;;;;;5039879;28;20435;-76
2020/12/23 09:38:35;;;;;;;5.17;4.63;;;5.10;99.90;;;;;;5028836;28;20916;-76
2020/12/23 09:41:07;;;;;;;9.03;5.37;;;5.10;99.90;;;;;;5038530;28;20904;-76
2020/12/23 09:43:35;;;;;;;7.20;5.20;;;5.10;99.90;;;;;;5040377;28;20439;-75
2020/12/23 09:46:08;;;;;;;4.80;4.37;;;5.10;99.90;;;;;;5039588;28;20439;-75
2020/12/23 09:48:34;;;;;;;4.13;3.63;;;5.20;99.90;;;;;;5041069;28;20435;-75
2020/12/23 09:51:00;;;;;;;5.00;4.33;;;5.20;99.90;;;;;;5037991;28;20944;-76
2020/12/23 09:53:27;;;;;;;5.43;4.50;;;5.20;99.90;;;;;;5038013;28;20467;-77
2020/12/23 09:55:54;;;;;;;7.77;5.80;;;5.20;99.90;;;;;;5038659;28;21156;-77
2020/12/23 09:58:20;;;;;;;5.83;5.00;;;5.20;99.90;;;;;;5039272;28;20473;-77
2020/12/23 10:00:47;;;;;;;5.30;4.50;;;5.30;99.90;;;;;;5041066;28;20449;-76
2020/12/23 10:03:13;;;;;;;7.10;3.40;;;5.30;99.90;;;;;;5040528;28;22656;-76
2020/12/23 10:05:39;;;;;;;4.23;3.50;;;5.30;99.90;;;;;;5038653;28;20445;-76
2020/12/23 10:08:09;;;;;;;4.60;4.03;;;5.40;99.90;;;;;;5038622;28;20437;-76
2020/12/23 10:10:35;;;;;;;4.50;3.90;;;5.50;99.90;;;;;;5039796;28;20429;-76
2020/12/23 10:13:01;;;;;;;5.47;3.90;;;5.50;99.90;;;;;;5040803;28;20448;-76
2020/12/23 10:15:27;;;;;;;5.63;4.33;;;5.60;99.90;;;;;;5038430;28;20494;-76
2020/12/23 10:17:53;;;;;;;6.90;4.13;;;5.50;99.90;;;;;;5038966;28;20918;-76
2020/12/23 10:20:19;;;;;;;4.00;3.60;;;5.60;99.90;;;;;;5041318;28;20629;-76
2020/12/23 10:22:44;;;;;;;7.17;4.47;;;5.60;99.90;;;;;;5038980;28;20181;-76
2020/12/23 10:25:11;;;;;;;4.90;4.50;;;5.70;99.90;;;;;;5039222;28;20190;-76
2020/12/23 10:27:37;;;;;;;6.47;4.13;;;5.80;99.90;;;;;;5038444;28;20209;-76
2020/12/23 10:30:08;;;;;;;5.93;4.47;;;5.80;99.90;;;;;;5040087;28;20852;-76
2020/12/23 10:32:34;;;;;;;6.30;4.70;;;5.80;99.90;;;;;;5047477;28;20471;-76
2020/12/23 10:35:00;;;;;;;5.53;4.23;;;5.80;99.90;;;;;;5043241;28;20431;-76
2020/12/23 10:37:26;;;;;;;6.97;5.50;;;5.80;99.90;;;;;;5043452;28;20442;-76
2020/12/23 10:39:52;;;;;;;7.73;4.87;;;5.90;99.90;;;;;;5059356;28;20490;-76
2020/12/23 10:42:18;;;;;;;5.30;4.23;;;5.90;99.90;;;;;;5044865;28;20579;-76
2020/12/23 10:44:44;;;;;;;6.87;4.73;;;6.00;99.90;;;;;;5044394;28;20498;-76
2020/12/23 10:47:11;;;;;;;6.43;4.03;;;6.00;99.90;;;;;;5044430;28;20200;-76
2020/12/23 10:49:36;;;;;;;5.47;4.03;;;6.00;99.90;;;;;;5042970;28;20442;-76
2020/12/23 10:52:02;;;;;;;6.03;4.17;;;6.10;99.90;;;;;;5041843;28;20456;-76
2020/12/23 10:54:30;;;;;;;6.67;3.80;;;6.00;99.90;;;;;;5041482;28;20201;-77
2020/12/23 10:56:57;;;;;;;5.30;4.50;;;6.00;99.90;;;;;;5042738;28;20181;-76
2020/12/23 10:59:23;;;;;;;4.33;3.93;;;6.00;99.90;;;;;;5043971;28;20436;-77
2020/12/23 11:01:56;;;;;;;6.43;5.10;;;6.10;99.90;;;;;;5044373;28;20490;-77
2020/12/23 11:04:24;;;;;;;7.57;4.20;;;6.10;99.90;;;;;;5041440;28;20431;-75
2020/12/23 11:06:51;;;;;;;7.93;4.13;;;6.10;99.90;;;;;;5046604;28;20439;-77
2020/12/23 11:09:18;;;;;;;4.70;4.20;;;6.10;99.90;;;;;;5042860;28;20498;-76
2020/12/23 11:11:49;;;;;;;4.80;4.03;;;6.10;99.90;;;;;;5041858;28;20503;-77
2020/12/23 11:14:15;;;;;;;6.30;4.90;;;6.10;99.90;;;;;;5044380;28;20419;-76
2020/12/23 11:16:41;;;;;;;5.70;5.20;;;6.10;99.90;;;;;;5043883;28;20641;-77
2020/12/23 11:19:07;;;;;;;5.50;4.60;;;6.00;99.90;;;;;;5043249;28;20559;-77
2020/12/23 11:21:33;;;;;;;7.83;4.57;;;5.90;99.90;;;;;;5042687;28;20177;-77
2020/12/23 11:23:59;;;;;;;4.87;4.27;;;5.90;99.90;;;;;;5041839;28;20224;-77
2020/12/23 11:26:24;;;;;;;8.43;4.97;;;5.90;99.90;;;;;;5043877;28;20435;-77
2020/12/23 11:28:51;;;;;;;4.90;4.43;;;5.90;99.90;;;;;;5043072;28;20199;-77
2020/12/23 11:31:16;;;;;;;4.87;4.37;;;5.90;99.90;;;;;;5046882;28;20263;-76
2020/12/23 11:33:42;;;;;;;5.03;3.83;;;5.90;99.90;;;;;;5043184;28;20452;-77
2020/12/23 11:36:08;;;;;;;10.47;5.37;;;5.90;99.90;;;;;;5042936;28;20189;-77
2020/12/23 11:38:35;;;;;;;5.83;4.83;;;6.00;99.90;;;;;;5060810;28;20458;-77
2020/12/23 11:41:00;;;;;;;4.90;4.50;;;6.00;99.90;;;;;;5042898;28;20446;-77
2020/12/23 11:43:26;;;;;;;5.33;3.80;;;5.90;99.90;;;;;;5043915;28;20523;-76
2020/12/23 11:45:53;;;;;;;4.73;4.33;;;5.90;99.90;;;;;;5042709;28;20182;-76
2020/12/23 11:48:19;;;;;;;8.37;4.70;;;5.90;99.90;;;;;;5042490;28;20431;-76
2020/12/23 11:50:44;;;;;;;8.50;5.30;;;6.00;99.90;;;;;;5040465;28;20432;-77
2020/12/23 11:53:11;;;;;;;6.30;4.70;;;6.00;99.90;;;;;;5039483;28;20849;-78
2020/12/23 11:55:37;;;;;;;5.30;4.13;;;6.00;99.90;;;;;;5032773;28;20224;-77
2020/12/23 11:58:04;;;;;;;7.30;4.53;;;6.10;99.90;;;;;;5037349;28;21101;-77
2020/12/23 12:00:29;;;;;;;5.43;4.17;;;6.10;99.90;;;;;;5039500;28;20441;-77
2020/12/23 12:02:55;;;;;;;4.40;4.00;;;6.10;99.90;;;;;;5036133;28;20918;-77
2020/12/23 12:05:21;;;;;;;4.80;4.33;;;6.20;99.90;;;;;;5039721;28;20272;-80
2020/12/23 12:07:47;;;;;;;10.90;6.03;;;6.10;99.90;;;;;;5040553;28;20182;-81
2020/12/23 12:10:13;;;;;;;11.00;5.60;;;6.10;99.90;;;;;;5040013;28;20249;-80
2020/12/23 12:12:38;;;;;;;8.13;6.23;;;6.10;99.90;;;;;;5043386;28;20319;-81
2020/12/23 12:15:05;;;;;;;9.37;5.93;;;6.00;99.90;;;;;;5043538;28;20170;-86
2020/12/23 12:17:30;;;;;;;8.93;5.70;;;6.10;99.90;;;;;;5042965;28;20251;-81
2020/12/23 12:19:57;;;;;;;5.83;5.07;;;6.10;99.90;;;;;;5042965;28;20421;-81
2020/12/23 12:22:23;;;;;;;5.03;4.17;;;6.10;99.90;;;;;;5041786;28;20562;-82
2020/12/23 12:24:48;;;;;;;6.77;4.63;;;6.20;99.90;;;;;;5039342;28;20214;-81
2020/12/23 12:27:14;;;;;;;5.53;4.63;;;6.10;99.90;;;;;;5038667;28;20439;-82
2020/12/23 12:29:40;;;;;;;4.70;4.30;;;6.10;99.90;;;;;;5036736;28;20674;-81
2020/12/23 12:32:06;;;;;;;4.40;4.00;;;6.10;99.90;;;;;;5041259;28;20193;-81
2020/12/23 12:34:32;;;;;;;5.00;4.50;;;6.20;99.90;;;;;;5041720;28;20663;-81
2020/12/23 12:36:59;;;;;;;4.50;4.10;;;6.20;99.90;;;;;;5036784;28;20567;-81
2020/12/23 12:39:25;;;;;;;4.40;4.00;;;6.10;99.90;;;;;;5053666;28;20735;-81
2020/12/23 12:41:51;;;;;;;5.47;4.00;;;6.20;99.90;;;;;;5034626;28;20482;-81
2020/12/23 12:44:17;;;;;;;6.60;4.67;;;6.10;99.90;;;;;;5053098;28;20463;-80
2020/12/23 12:46:43;;;;;;;5.07;4.10;;;6.20;99.90;;;;;;5036203;28;20192;-80
2020/12/23 12:49:09;;;;;;;4.87;4.03;;;6.20;99.90;;;;;;5048609;28;20917;-80
2020/12/23 12:51:35;;;;;;;4.33;3.90;;;6.20;99.90;;;;;;5036382;28;20471;-79
2020/12/23 12:54:01;;;;;;;4.60;3.67;;;6.10;99.90;;;;;;5032081;28;20894;-80
2020/12/23 12:56:31;;;;;;;5.93;3.70;;;6.20;99.90;;;;;;5035881;28;20176;-79
2020/12/23 12:58:58;;;;;;;4.83;3.90;;;6.20;99.90;;;;;;5035489;28;20267;-78
2020/12/23 13:01:35;;;;;;;5.40;4.37;;;6.20;99.90;;;;;;5035611;28;21146;-79
2020/12/23 13:04:03;;;;;;;4.90;3.80;;;6.20;99.90;;;;;;5034948;28;20432;-78